sensor_id;sensor_type;location;lat;lon;timestamp;pressure;altitude;pressure_sealevel;temperature;humidity
33189;BME280;52601;53.070;10.600;2022-09-24T00:02:34;100988.13;;;13.32;100.00
33189;BME280;52601;53.070;10.600;2022-09-24T00:05:19;100996.44;;;13.24;100.00
33189;BME280;52601;53.070;10.600;2022-09-24T00:08:08;100979.69;;;13.10;100.00
33189;BME280;52601;53.070;10.600;2022-09-24T00:10:54;100988.13;;;13.16;100.00
33189;BME280;52601;53.070;10.600;2022-09-24T00:13:41;100988.56;;;13.24;100.00
33189;BME280;52601;53.070;10.600;2022-09-24T00:16:29;100983.09;;;13.43;100.00
33189;BME280;52601;53.070;10.600;2022-09-24T00:19:18;100970.38;;;13.35;100.00
33189;BME280;52601;53.070;10.600;2022-09-24T00:22:03;100977.84;;;13.43;100.00
33189;BME280;52601;53.070;10.600;2022-09-24T00:24:49;100988.56;;;13.40;100.00
33189;BME280;52601;53.070;10.600;2022-09-24T00:27:53;100978.34;;;13.34;100.00
33189;BME280;52601;53.070;10.600;2022-09-24T00:30:39;100966.19;;;13.31;100.00
33189;BME280;52601;53.070;10.600;2022-09-24T00:33:26;100974.84;;;13.49;100.00
33189;BME280;52601;53.070;10.600;2022-09-24T00:36:12;100986.50;;;13.45;100.00
33189;BME280;52601;53.070;10.600;2022-09-24T00:38:59;100983.44;;;13.52;100.00
33189;BME280;52601;53.070;10.600;2022-09-24T00:41:44;100977.00;;;13.58;100.00
33189;BME280;52601;53.070;10.600;2022-09-24T00:44:47;100984.28;;;13.53;100.00
33189;BME280;52601;53.070;10.600;2022-09-24T00:47:38;100982.59;;;13.36;100.00
33189;BME280;52601;53.070;10.600;2022-09-24T00:50:28;100976.38;;;13.53;100.00
33189;BME280;52601;53.070;10.600;2022-09-24T00:53:19;100962.03;;;13.27;100.00
33189;BME280;52601;53.070;10.600;2022-09-24T00:56:09;100984.53;;;13.33;100.00
33189;BME280;52601;53.070;10.600;2022-09-24T00:58:59;100984.28;;;13.37;100.00
33189;BME280;52601;53.070;10.600;2022-09-24T01:01:47;100987.84;;;13.36;100.00
33189;BME280;52601;53.070;10.600;2022-09-24T01:04:33;100985.81;;;13.41;100.00
33189;BME280;52601;53.070;10.600;2022-09-24T01:07:19;100984.19;;;13.54;99.19
33189;BME280;52601;53.070;10.600;2022-09-24T01:10:04;100971.78;;;13.56;100.00
33189;BME280;52601;53.070;10.600;2022-09-24T01:12:57;100973.59;;;13.56;100.00
33189;BME280;52601;53.070;10.600;2022-09-24T01:15:54;100968.81;;;13.62;100.00
33189;BME280;52601;53.070;10.600;2022-09-24T01:18:47;100965.00;;;13.52;100.00
33189;BME280;52601;53.070;10.600;2022-09-24T01:21:37;100975.88;;;13.46;100.00
33189;BME280;52601;53.070;10.600;2022-09-24T01:24:43;100975.47;;;13.54;100.00
33189;BME280;52601;53.070;10.600;2022-09-24T01:28:12;100967.19;;;13.44;100.00
33189;BME280;52601;53.070;10.600;2022-09-24T01:31:20;100965.63;;;13.42;100.00
33189;BME280;52601;53.070;10.600;2022-09-24T01:34:09;100960.59;;;13.37;100.00
33189;BME280;52601;53.070;10.600;2022-09-24T01:36:57;100969.00;;;13.28;100.00
33189;BME280;52601;53.070;10.600;2022-09-24T01:39:45;100967.28;;;13.27;100.00
33189;BME280;52601;53.070;10.600;2022-09-24T01:42:32;100967.88;;;13.32;100.00
33189;BME280;52601;53.070;10.600;2022-09-24T01:45:19;100958.81;;;13.38;100.00
33189;BME280;52601;53.070;10.600;2022-09-24T01:48:05;100972.13;;;13.50;100.00
33189;BME280;52601;53.070;10.600;2022-09-24T01:51:32;100964.41;;;13.47;100.00
33189;BME280;52601;53.070;10.600;2022-09-24T01:54:26;100963.75;;;13.44;100.00
33189;BME280;52601;53.070;10.600;2022-09-24T01:57:20;100950.06;;;13.37;100.00
33189;BME280;52601;53.070;10.600;2022-09-24T02:00:10;100955.22;;;13.39;100.00
33189;BME280;52601;53.070;10.600;2022-09-24T02:03:07;100955.66;;;13.31;100.00
33189;BME280;52601;53.070;10.600;2022-09-24T02:06:00;100952.91;;;13.48;100.00
33189;BME280;52601;53.070;10.600;2022-09-24T02:08:48;100962.38;;;13.37;100.00
33189;BME280;52601;53.070;10.600;2022-09-24T02:11:35;100956.19;;;13.38;100.00
33189;BME280;52601;53.070;10.600;2022-09-24T02:14:22;100942.81;;;13.41;100.00
33189;BME280;52601;53.070;10.600;2022-09-24T02:17:09;100952.56;;;13.54;100.00
33189;BME280;52601;53.070;10.600;2022-09-24T02:19:57;100955.50;;;13.50;100.00
33189;BME280;52601;53.070;10.600;2022-09-24T02:22:47;100951.41;;;13.44;100.00
33189;BME280;52601;53.070;10.600;2022-09-24T02:25:42;100947.50;;;13.36;100.00
33189;BME280;52601;53.070;10.600;2022-09-24T02:28:32;100955.84;;;13.28;100.00
33189;BME280;52601;53.070;10.600;2022-09-24T02:31:23;100938.50;;;13.24;100.00
33189;BME280;52601;53.070;10.600;2022-09-24T02:34:16;100958.38;;;13.30;100.00
33189;BME280;52601;53.070;10.600;2022-09-24T02:37:09;100959.72;;;13.21;100.00
33189;BME280;52601;53.070;10.600;2022-09-24T02:39:55;100942.41;;;13.17;100.00
33189;BME280;52601;53.070;10.600;2022-09-24T02:42:41;100948.94;;;13.10;100.00
33189;BME280;52601;53.070;10.600;2022-09-24T02:45:27;100939.53;;;13.06;100.00
33189;BME280;52601;53.070;10.600;2022-09-24T02:48:13;100953.47;;;13.24;100.00
33189;BME280;52601;53.070;10.600;2022-09-24T02:50:58;100950.22;;;13.19;100.00
33189;BME280;52601;53.070;10.600;2022-09-24T02:53:44;100942.22;;;13.05;100.00
33189;BME280;52601;53.070;10.600;2022-09-24T02:56:30;100948.34;;;13.21;100.00
33189;BME280;52601;53.070;10.600;2022-09-24T02:59:16;100933.16;;;13.10;100.00
33189;BME280;52601;53.070;10.600;2022-09-24T03:02:01;100950.31;;;13.17;100.00
33189;BME280;52601;53.070;10.600;2022-09-24T03:04:48;100951.81;;;13.06;100.00
33189;BME280;52601;53.070;10.600;2022-09-24T03:07:33;100952.25;;;13.14;100.00
33189;BME280;52601;53.070;10.600;2022-09-24T03:10:19;100948.88;;;13.12;100.00
33189;BME280;52601;53.070;10.600;2022-09-24T03:13:04;100940.34;;;13.07;100.00
33189;BME280;52601;53.070;10.600;2022-09-24T03:15:51;100950.50;;;12.97;100.00
33189;BME280;52601;53.070;10.600;2022-09-24T03:18:36;100949.19;;;13.06;100.00
33189;BME280;52601;53.070;10.600;2022-09-24T03:21:22;100954.13;;;13.12;100.00
33189;BME280;52601;53.070;10.600;2022-09-24T03:24:07;100944.03;;;13.02;100.00
33189;BME280;52601;53.070;10.600;2022-09-24T03:26:53;100955.44;;;13.03;100.00
33189;BME280;52601;53.070;10.600;2022-09-24T03:29:39;100943.94;;;12.88;100.00
33189;BME280;52601;53.070;10.600;2022-09-24T03:32:43;100951.69;;;12.91;100.00
33189;BME280;52601;53.070;10.600;2022-09-24T03:35:28;100939.22;;;12.95;100.00
33189;BME280;52601;53.070;10.600;2022-09-24T03:38:14;100935.56;;;12.97;100.00
33189;BME280;52601;53.070;10.600;2022-09-24T03:41:00;100945.25;;;12.97;100.00
33189;BME280;52601;53.070;10.600;2022-09-24T03:43:45;100937.59;;;12.92;100.00
33189;BME280;52601;53.070;10.600;2022-09-24T03:46:31;100942.59;;;12.97;100.00
33189;BME280;52601;53.070;10.600;2022-09-24T03:49:17;100933.19;;;12.93;100.00
33189;BME280;52601;53.070;10.600;2022-09-24T03:52:02;100944.31;;;12.98;100.00
33189;BME280;52601;53.070;10.600;2022-09-24T03:54:48;100937.41;;;12.80;100.00
33189;BME280;52601;53.070;10.600;2022-09-24T03:57:33;100941.91;;;12.78;100.00
33189;BME280;52601;53.070;10.600;2022-09-24T04:00:19;100946.56;;;12.88;100.00
33189;BME280;52601;53.070;10.600;2022-09-24T04:03:05;100953.19;;;12.80;100.00
33189;BME280;52601;53.070;10.600;2022-09-24T04:05:50;100942.91;;;12.75;100.00
33189;BME280;52601;53.070;10.600;2022-09-24T04:08:36;100931.38;;;12.78;100.00
33189;BME280;52601;53.070;10.600;2022-09-24T04:11:22;100935.88;;;12.76;100.00
33189;BME280;52601;53.070;10.600;2022-09-24T04:14:08;100942.16;;;12.89;100.00
33189;BME280;52601;53.070;10.600;2022-09-24T04:16:54;100930.53;;;12.93;100.00
33189;BME280;52601;53.070;10.600;2022-09-24T04:19:39;100941.25;;;12.90;100.00
33189;BME280;52601;53.070;10.600;2022-09-24T04:22:25;100924.84;;;12.85;100.00
33189;BME280;52601;53.070;10.600;2022-09-24T04:25:11;100929.00;;;12.89;100.00
33189;BME280;52601;53.070;10.600;2022-09-24T04:28:02;100936.75;;;12.92;100.00
33189;BME280;52601;53.070;10.600;2022-09-24T04:30:47;100945.47;;;12.77;100.00
33189;BME280;52601;53.070;10.600;2022-09-24T04:33:33;100936.88;;;12.73;100.00
33189;BME280;52601;53.070;10.600;2022-09-24T04:36:19;100920.06;;;12.60;100.00
33189;BME280;52601;53.070;10.600;2022-09-24T04:39:04;100944.69;;;12.75;100.00
33189;BME280;52601;53.070;10.600;2022-09-24T04:41:49;100933.22;;;12.60;100.00
33189;BME280;52601;53.070;10.600;2022-09-24T04:44:35;100916.91;;;12.54;100.00
33189;BME280;52601;53.070;10.600;2022-09-24T04:47:20;100923.84;;;12.55;100.00
33189;BME280;52601;53.070;10.600;2022-09-24T04:50:09;100921.50;;;12.66;100.00
33189;BME280;52601;53.070;10.600;2022-09-24T04:52:55;100923.97;;;12.69;100.00
33189;BME280;52601;53.070;10.600;2022-09-24T04:55:41;100924.69;;;12.72;100.00
33189;BME280;52601;53.070;10.600;2022-09-24T04:58:26;100931.28;;;12.47;100.00
33189;BME280;52601;53.070;10.600;2022-09-24T05:01:12;100928.00;;;12.59;100.00
33189;BME280;52601;53.070;10.600;2022-09-24T05:03:58;100921.59;;;12.64;100.00
33189;BME280;52601;53.070;10.600;2022-09-24T05:06:43;100925.59;;;12.71;100.00
33189;BME280;52601;53.070;10.600;2022-09-24T05:09:30;100931.28;;;12.79;100.00
33189;BME280;52601;53.070;10.600;2022-09-24T05:12:19;100929.53;;;12.80;100.00
33189;BME280;52601;53.070;10.600;2022-09-24T05:15:05;100922.31;;;12.83;100.00
33189;BME280;52601;53.070;10.600;2022-09-24T05:17:51;100916.94;;;12.69;100.00
33189;BME280;52601;53.070;10.600;2022-09-24T05:20:37;100932.28;;;12.61;100.00
33189;BME280;52601;53.070;10.600;2022-09-24T05:23:22;100925.59;;;12.71;100.00
33189;BME280;52601;53.070;10.600;2022-09-24T05:26:08;100933.06;;;12.79;100.00
33189;BME280;52601;53.070;10.600;2022-09-24T05:29:12;100947.66;;;12.69;100.00
33189;BME280;52601;53.070;10.600;2022-09-24T05:31:57;100936.75;;;12.76;100.00
33189;BME280;52601;53.070;10.600;2022-09-24T05:34:47;100937.41;;;12.80;100.00
33189;BME280;52601;53.070;10.600;2022-09-24T05:37:36;100938.84;;;12.85;100.00
33189;BME280;52601;53.070;10.600;2022-09-24T05:40:22;100929.19;;;12.86;100.00
33189;BME280;52601;53.070;10.600;2022-09-24T05:43:26;100937.84;;;12.88;100.00
33189;BME280;52601;53.070;10.600;2022-09-24T05:46:12;100937.69;;;12.91;100.00
33189;BME280;52601;53.070;10.600;2022-09-24T05:48:58;100919.34;;;12.89;100.00
33189;BME280;52601;53.070;10.600;2022-09-24T05:51:46;100934.06;;;13.09;100.00
33189;BME280;52601;53.070;10.600;2022-09-24T05:54:32;100928.34;;;13.01;100.00
33189;BME280;52601;53.070;10.600;2022-09-24T05:57:17;100912.84;;;13.12;100.00
33189;BME280;52601;53.070;10.600;2022-09-24T06:00:05;100923.78;;;13.05;100.00
33189;BME280;52601;53.070;10.600;2022-09-24T06:02:51;100917.59;;;13.06;100.00
33189;BME280;52601;53.070;10.600;2022-09-24T06:05:36;100924.56;;;13.07;100.00
33189;BME280;52601;53.070;10.600;2022-09-24T06:08:22;100937.22;;;13.16;100.00
33189;BME280;52601;53.070;10.600;2022-09-24T06:11:07;100925.91;;;12.98;100.00
33189;BME280;52601;53.070;10.600;2022-09-24T06:13:53;100942.91;;;13.08;100.00
33189;BME280;52601;53.070;10.600;2022-09-24T06:16:38;100943.16;;;13.04;100.00
33189;BME280;52601;53.070;10.600;2022-09-24T06:19:24;100950.06;;;13.06;100.00
33189;BME280;52601;53.070;10.600;2022-09-24T06:22:10;100951.59;;;13.10;100.00
33189;BME280;52601;53.070;10.600;2022-09-24T06:24:55;100944.59;;;13.09;100.00
33189;BME280;52601;53.070;10.600;2022-09-24T06:27:41;100937.47;;;13.11;100.00
33189;BME280;52601;53.070;10.600;2022-09-24T06:30:33;100946.66;;;13.20;100.00
33189;BME280;52601;53.070;10.600;2022-09-24T06:33:19;100956.63;;;13.30;100.00
33189;BME280;52601;53.070;10.600;2022-09-24T06:36:05;100949.38;;;13.18;100.00
33189;BME280;52601;53.070;10.600;2022-09-24T06:38:51;100957.53;;;13.29;100.00
33189;BME280;52601;53.070;10.600;2022-09-24T06:41:36;100949.38;;;13.18;100.00
33189;BME280;52601;53.070;10.600;2022-09-24T06:44:22;100950.81;;;13.24;100.00
33189;BME280;52601;53.070;10.600;2022-09-24T06:47:08;100948.88;;;13.27;100.00
33189;BME280;52601;53.070;10.600;2022-09-24T06:49:53;100940.63;;;13.33;100.00
33189;BME280;52601;53.070;10.600;2022-09-24T06:52:39;100959.06;;;13.33;100.00
33189;BME280;52601;53.070;10.600;2022-09-24T06:55:25;100955.47;;;13.34;100.00
33189;BME280;52601;53.070;10.600;2022-09-24T06:58:13;100946.06;;;13.30;100.00
33189;BME280;52601;53.070;10.600;2022-09-24T07:01:00;100949.28;;;13.35;100.00
33189;BME280;52601;53.070;10.600;2022-09-24T07:03:47;100945.56;;;13.39;100.00
33189;BME280;52601;53.070;10.600;2022-09-24T07:06:35;100950.50;;;13.30;100.00
33189;BME280;52601;53.070;10.600;2022-09-24T07:09:39;100961.94;;;13.44;100.00
33189;BME280;52601;53.070;10.600;2022-09-24T07:12:27;100961.78;;;13.47;100.00
33189;BME280;52601;53.070;10.600;2022-09-24T07:15:12;100956.16;;;13.53;100.00
33189;BME280;52601;53.070;10.600;2022-09-24T07:17:58;100946.63;;;13.51;100.00
33189;BME280;52601;53.070;10.600;2022-09-24T07:20:49;100963.31;;;13.51;100.00
33189;BME280;52601;53.070;10.600;2022-09-24T07:23:34;100959.78;;;13.66;100.00
33189;BME280;52601;53.070;10.600;2022-09-24T07:26:20;100955.91;;;13.58;100.00
33189;BME280;52601;53.070;10.600;2022-09-24T07:29:06;100951.69;;;13.40;100.00
33189;BME280;52601;53.070;10.600;2022-09-24T07:31:51;100967.44;;;13.71;100.00
33189;BME280;52601;53.070;10.600;2022-09-24T07:34:37;100953.84;;;13.63;100.00
33189;BME280;52601;53.070;10.600;2022-09-24T07:37:22;100959.53;;;13.71;100.00
33189;BME280;52601;53.070;10.600;2022-09-24T07:40:08;100953.91;;;13.77;100.00
33189;BME280;52601;53.070;10.600;2022-09-24T07:42:54;100973.50;;;14.03;100.00
33189;BME280;52601;53.070;10.600;2022-09-24T07:45:41;100974.25;;;14.05;100.00
33189;BME280;52601;53.070;10.600;2022-09-24T07:48:26;100959.28;;;14.05;100.00
33189;BME280;52601;53.070;10.600;2022-09-24T07:51:12;100952.59;;;14.00;100.00
33189;BME280;52601;53.070;10.600;2022-09-24T07:53:58;100961.22;;;13.88;100.00
33189;BME280;52601;53.070;10.600;2022-09-24T07:56:43;100971.09;;;14.14;100.00
33189;BME280;52601;53.070;10.600;2022-09-24T07:59:29;100969.53;;;14.25;100.00
33189;BME280;52601;53.070;10.600;2022-09-24T08:02:16;100963.56;;;14.22;100.00
33189;BME280;52601;53.070;10.600;2022-09-24T08:05:01;100956.97;;;14.15;100.00
33189;BME280;52601;53.070;10.600;2022-09-24T08:07:54;100976.56;;;14.40;100.00
33189;BME280;52601;53.070;10.600;2022-09-24T08:10:40;100975.94;;;14.65;100.00
33189;BME280;52601;53.070;10.600;2022-09-24T08:13:27;100982.22;;;14.48;100.00
33189;BME280;52601;53.070;10.600;2022-09-24T08:16:13;100977.13;;;14.31;100.00
33189;BME280;52601;53.070;10.600;2022-09-24T08:19:00;100982.63;;;14.56;100.00
33189;BME280;52601;53.070;10.600;2022-09-24T08:21:46;100963.41;;;14.68;100.00
33189;BME280;52601;53.070;10.600;2022-09-24T08:24:33;100945.19;;;14.64;100.00
33189;BME280;52601;53.070;10.600;2022-09-24T08:27:19;100976.88;;;15.06;100.00
33189;BME280;52601;53.070;10.600;2022-09-24T08:30:05;100972.34;;;15.08;100.00
33189;BME280;52601;53.070;10.600;2022-09-24T08:32:51;100976.22;;;15.03;100.00
33189;BME280;52601;53.070;10.600;2022-09-24T08:35:37;100981.13;;;15.09;100.00
33189;BME280;52601;53.070;10.600;2022-09-24T08:38:24;100977.88;;;15.32;100.00
33189;BME280;52601;53.070;10.600;2022-09-24T08:44:13;100978.34;;;15.38;100.00
33189;BME280;52601;53.070;10.600;2022-09-24T08:47:35;100975.59;;;15.40;100.00
33189;BME280;52601;53.070;10.600;2022-09-24T08:50:25;100982.41;;;15.44;100.00
33189;BME280;52601;53.070;10.600;2022-09-24T08:56:33;100977.56;;;15.65;100.00
33189;BME280;52601;53.070;10.600;2022-09-24T08:59:26;100976.31;;;15.70;100.00
33189;BME280;52601;53.070;10.600;2022-09-24T09:02:35;100978.72;;;15.32;100.00
33189;BME280;52601;53.070;10.600;2022-09-24T09:05:51;100989.41;;;15.31;100.00
33189;BME280;52601;53.070;10.600;2022-09-24T09:12:00;100985.63;;;15.35;100.00
33189;BME280;52601;53.070;10.600;2022-09-24T09:17:40;101008.25;;;15.53;100.00
33189;BME280;52601;53.070;10.600;2022-09-24T09:20:29;100999.03;;;15.46;100.00
33189;BME280;52601;53.070;10.600;2022-09-24T09:23:19;100993.88;;;15.57;100.00
33189;BME280;52601;53.070;10.600;2022-09-24T09:26:08;100995.53;;;15.45;100.00
33189;BME280;52601;53.070;10.600;2022-09-24T09:28:57;100999.53;;;15.65;100.00
33189;BME280;52601;53.070;10.600;2022-09-24T09:32:04;101004.75;;;15.67;100.00
33189;BME280;52601;53.070;10.600;2022-09-24T09:35:16;101005.94;;;15.75;100.00
33189;BME280;52601;53.070;10.600;2022-09-24T09:38:42;101002.88;;;15.55;100.00
33189;BME280;52601;53.070;10.600;2022-09-24T09:41:40;101006.44;;;15.68;100.00
33189;BME280;52601;53.070;10.600;2022-09-24T09:44:30;100982.56;;;15.55;100.00
33189;BME280;52601;53.070;10.600;2022-09-24T09:50:36;100992.84;;;15.60;100.00
33189;BME280;52601;53.070;10.600;2022-09-24T09:53:25;100987.16;;;15.66;100.00
33189;BME280;52601;53.070;10.600;2022-09-24T09:56:11;100994.66;;;15.86;100.00
33189;BME280;52601;53.070;10.600;2022-09-24T09:59:07;100990.56;;;15.68;100.00
33189;BME280;52601;53.070;10.600;2022-09-24T10:02:00;101000.34;;;15.39;100.00
33189;BME280;52601;53.070;10.600;2022-09-24T10:04:46;101008.09;;;15.42;100.00
33189;BME280;52601;53.070;10.600;2022-09-24T10:07:43;101000.03;;;15.58;100.00
33189;BME280;52601;53.070;10.600;2022-09-24T10:10:29;100996.16;;;15.49;100.00
33189;BME280;52601;53.070;10.600;2022-09-24T10:13:14;100987.22;;;15.51;100.00
33189;BME280;52601;53.070;10.600;2022-09-24T10:16:04;101000.16;;;15.28;100.00
33189;BME280;52601;53.070;10.600;2022-09-24T10:18:52;101003.66;;;15.42;100.00
33189;BME280;52601;53.070;10.600;2022-09-24T10:21:38;101005.09;;;15.75;100.00
33189;BME280;52601;53.070;10.600;2022-09-24T10:24:26;100992.22;;;15.83;100.00
33189;BME280;52601;53.070;10.600;2022-09-24T10:27:17;101006.72;;;15.90;100.00
33189;BME280;52601;53.070;10.600;2022-09-24T10:30:16;101004.03;;;16.04;100.00
33189;BME280;52601;53.070;10.600;2022-09-24T10:33:19;100994.50;;;16.01;100.00
33189;BME280;52601;53.070;10.600;2022-09-24T10:36:26;101004.47;;;16.10;100.00
33189;BME280;52601;53.070;10.600;2022-09-24T10:39:14;101002.47;;;16.14;100.00
33189;BME280;52601;53.070;10.600;2022-09-24T10:41:59;100990.34;;;15.97;100.00
33189;BME280;52601;53.070;10.600;2022-09-24T10:44:45;100998.59;;;15.93;100.00
33189;BME280;52601;53.070;10.600;2022-09-24T10:51:37;101003.75;;;15.82;100.00
33189;BME280;52601;53.070;10.600;2022-09-24T11:00:44;101002.47;;;15.75;100.00
33189;BME280;52601;53.070;10.600;2022-09-24T11:04:06;100999.75;;;15.62;100.00
33189;BME280;52601;53.070;10.600;2022-09-24T11:14:10;101001.28;;;15.38;100.00
33189;BME280;52601;53.070;10.600;2022-09-24T11:16:33;101002.88;;;15.40;100.00
33189;BME280;52601;53.070;10.600;2022-09-24T11:25:22;101006.31;;;15.42;100.00
33189;BME280;52601;53.070;10.600;2022-09-24T11:28:24;100994.19;;;15.52;100.00
33189;BME280;52601;53.070;10.600;2022-09-24T11:31:29;100988.50;;;15.85;100.00
33189;BME280;52601;53.070;10.600;2022-09-24T11:37:29;100991.66;;;16.04;100.00
33189;BME280;52601;53.070;10.600;2022-09-24T11:40:25;100998.91;;;16.27;100.00
33189;BME280;52601;53.070;10.600;2022-09-24T11:43:45;100998.28;;;16.24;100.00
33189;BME280;52601;53.070;10.600;2022-09-24T11:50:31;100994.09;;;16.07;100.00
33189;BME280;52601;53.070;10.600;2022-09-24T11:53:25;101002.19;;;16.31;100.00
33189;BME280;52601;53.070;10.600;2022-09-24T11:56:34;100993.22;;;16.07;100.00
33189;BME280;52601;53.070;10.600;2022-09-24T12:02:20;100979.66;;;16.38;100.00
33189;BME280;52601;53.070;10.600;2022-09-24T12:05:29;100993.97;;;16.48;100.00
33189;BME280;52601;53.070;10.600;2022-09-24T12:08:25;100977.16;;;16.49;100.00
33189;BME280;52601;53.070;10.600;2022-09-24T12:11:25;100975.97;;;16.78;100.00
33189;BME280;52601;53.070;10.600;2022-09-24T12:14:21;100978.13;;;16.73;100.00
33189;BME280;52601;53.070;10.600;2022-09-24T12:17:17;100976.94;;;16.77;100.00
33189;BME280;52601;53.070;10.600;2022-09-24T12:20:17;100978.31;;;16.95;100.00
33189;BME280;52601;53.070;10.600;2022-09-24T12:23:09;100957.25;;;16.94;100.00
33189;BME280;52601;53.070;10.600;2022-09-24T12:25:59;100975.84;;;17.17;100.00
33189;BME280;52601;53.070;10.600;2022-09-24T12:32:06;100981.59;;;17.11;100.00
33189;BME280;52601;53.070;10.600;2022-09-24T12:38:30;100968.59;;;16.83;100.00
33189;BME280;52601;53.070;10.600;2022-09-24T12:41:22;100984.31;;;17.22;100.00
33189;BME280;52601;53.070;10.600;2022-09-24T12:46:55;100975.78;;;16.81;100.00
33189;BME280;52601;53.070;10.600;2022-09-24T12:49:47;100967.50;;;16.61;100.00
33189;BME280;52601;53.070;10.600;2022-09-24T12:52:39;100965.72;;;16.74;100.00
33189;BME280;52601;53.070;10.600;2022-09-24T12:55:30;100971.88;;;16.62;100.00
33189;BME280;52601;53.070;10.600;2022-09-24T12:58:37;100979.50;;;16.66;100.00
33189;BME280;52601;53.070;10.600;2022-09-24T13:06:59;100966.50;;;16.36;100.00
33189;BME280;52601;53.070;10.600;2022-09-24T13:09:44;100971.84;;;16.49;100.00
33189;BME280;52601;53.070;10.600;2022-09-24T13:12:31;100943.38;;;16.53;100.00
33189;BME280;52601;53.070;10.600;2022-09-24T13:15:32;100967.03;;;16.29;100.00
33189;BME280;52601;53.070;10.600;2022-09-24T13:18:20;100947.56;;;16.30;100.00
33189;BME280;52601;53.070;10.600;2022-09-24T13:21:18;100960.09;;;16.01;100.00
33189;BME280;52601;53.070;10.600;2022-09-24T13:24:27;100952.88;;;16.30;100.00
33189;BME280;52601;53.070;10.600;2022-09-24T13:27:23;100956.16;;;16.33;100.00
33189;BME280;52601;53.070;10.600;2022-09-24T13:30:19;100958.00;;;16.58;100.00
33189;BME280;52601;53.070;10.600;2022-09-24T13:38:54;100951.47;;;16.37;100.00
33189;BME280;52601;53.070;10.600;2022-09-24T13:41:44;100946.38;;;16.21;100.00
33189;BME280;52601;53.070;10.600;2022-09-24T13:44:41;100949.28;;;16.44;100.00
33189;BME280;52601;53.070;10.600;2022-09-24T13:47:38;100942.84;;;16.85;100.00
33189;BME280;52601;53.070;10.600;2022-09-24T13:50:27;100948.13;;;16.73;100.00
33189;BME280;52601;53.070;10.600;2022-09-24T13:53:30;100943.34;;;16.90;100.00
33189;BME280;52601;53.070;10.600;2022-09-24T13:56:17;100951.63;;;16.86;100.00
33189;BME280;52601;53.070;10.600;2022-09-24T13:59:09;100944.00;;;16.94;100.00
33189;BME280;52601;53.070;10.600;2022-09-24T14:01:55;100939.75;;;16.79;100.00
33189;BME280;52601;53.070;10.600;2022-09-24T14:04:40;100942.31;;;16.68;100.00
33189;BME280;52601;53.070;10.600;2022-09-24T14:07:27;100946.22;;;16.75;100.00
33189;BME280;52601;53.070;10.600;2022-09-24T14:10:13;100939.00;;;16.89;100.00
33189;BME280;52601;53.070;10.600;2022-09-24T14:15:59;100943.88;;;16.83;100.00
33189;BME280;52601;53.070;10.600;2022-09-24T14:19:02;100934.38;;;16.68;100.00
33189;BME280;52601;53.070;10.600;2022-09-24T14:21:53;100946.63;;;16.94;100.00
33189;BME280;52601;53.070;10.600;2022-09-24T14:24:51;100939.50;;;16.94;100.00
33189;BME280;52601;53.070;10.600;2022-09-24T14:27:44;100931.94;;;16.77;100.00
33189;BME280;52601;53.070;10.600;2022-09-24T14:30:32;100930.53;;;16.84;100.00
33189;BME280;52601;53.070;10.600;2022-09-24T14:33:22;100937.00;;;16.80;100.00
33189;BME280;52601;53.070;10.600;2022-09-24T14:36:11;100939.88;;;16.90;100.00
33189;BME280;52601;53.070;10.600;2022-09-24T14:39:02;100938.16;;;16.76;100.00
33189;BME280;52601;53.070;10.600;2022-09-24T14:41:48;100945.28;;;16.63;100.00
33189;BME280;52601;53.070;10.600;2022-09-24T14:44:34;100941.03;;;16.48;100.00
33189;BME280;52601;53.070;10.600;2022-09-24T14:47:30;100944.41;;;16.37;100.00
33189;BME280;52601;53.070;10.600;2022-09-24T14:53:25;100922.56;;;16.21;100.00
33189;BME280;52601;53.070;10.600;2022-09-24T14:56:19;100937.19;;;16.14;100.00
33189;BME280;52601;53.070;10.600;2022-09-24T14:59:12;100930.81;;;16.17;100.00
33189;BME280;52601;53.070;10.600;2022-09-24T15:02:21;100919.59;;;16.13;100.00
33189;BME280;52601;53.070;10.600;2022-09-24T15:05:09;100925.75;;;16.14;100.00
33189;BME280;52601;53.070;10.600;2022-09-24T15:11:15;100929.22;;;15.63;100.00
33189;BME280;52601;53.070;10.600;2022-09-24T15:14:20;100931.91;;;15.34;100.00
33189;BME280;52601;53.070;10.600;2022-09-24T15:17:20;100945.84;;;14.82;100.00
33189;BME280;52601;53.070;10.600;2022-09-24T15:20:09;100946.06;;;14.79;100.00
33189;BME280;52601;53.070;10.600;2022-09-24T15:22:55;100947.66;;;14.67;100.00
33189;BME280;52601;53.070;10.600;2022-09-24T15:25:41;100946.16;;;14.77;100.00
33189;BME280;52601;53.070;10.600;2022-09-24T15:28:27;100930.75;;;14.69;100.00
33189;BME280;52601;53.070;10.600;2022-09-24T15:31:13;100937.47;;;14.75;100.00
33189;BME280;52601;53.070;10.600;2022-09-24T15:33:59;100931.63;;;14.70;100.00
33189;BME280;52601;53.070;10.600;2022-09-24T15:36:46;100942.06;;;14.86;100.00
33189;BME280;52601;53.070;10.600;2022-09-24T15:39:32;100930.69;;;14.71;100.00
33189;BME280;52601;53.070;10.600;2022-09-24T15:42:19;100942.19;;;14.70;100.00
33189;BME280;52601;53.070;10.600;2022-09-24T15:45:14;100925.84;;;14.63;100.00
33189;BME280;52601;53.070;10.600;2022-09-24T15:48:00;100927.47;;;14.66;100.00